sensor_id;sensor_type;location;lat;lon;timestamp;temperature;humidity
14893;DHT22;7538;53.626;9.906;2023-02-11T00:01:36;7.80;99.90
14893;DHT22;7538;53.626;9.906;2023-02-11T00:04:05;7.60;99.90
14893;DHT22;7538;53.626;9.906;2023-02-11T00:06:33;7.50;99.90
14893;DHT22;7538;53.626;9.906;2023-02-11T00:09:01;7.50;99.90
14893;DHT22;7538;53.626;9.906;2023-02-11T00:11:28;7.50;99.90
14893;DHT22;7538;53.626;9.906;2023-02-11T00:13:55;7.60;99.90
14893;DHT22;7538;53.626;9.906;2023-02-11T00:16:22;7.60;99.90
14893;DHT22;7538;53.626;9.906;2023-02-11T00:18:49;7.60;99.90
14893;DHT22;7538;53.626;9.906;2023-02-11T00:21:21;7.60;99.90
14893;DHT22;7538;53.626;9.906;2023-02-11T00:23:49;7.60;99.90
14893;DHT22;7538;53.626;9.906;2023-02-11T00:26:17;7.60;99.90
14893;DHT22;7538;53.626;9.906;2023-02-11T00:28:45;7.60;99.90
14893;DHT22;7538;53.626;9.906;2023-02-11T00:31:13;7.70;99.90
14893;DHT22;7538;53.626;9.906;2023-02-11T00:33:40;7.70;99.90
14893;DHT22;7538;53.626;9.906;2023-02-11T00:36:10;7.60;99.90
14893;DHT22;7538;53.626;9.906;2023-02-11T00:38:41;7.70;99.90
14893;DHT22;7538;53.626;9.906;2023-02-11T00:41:08;7.60;99.90
14893;DHT22;7538;53.626;9.906;2023-02-11T00:43:35;7.70;99.90
14893;DHT22;7538;53.626;9.906;2023-02-11T00:46:02;7.70;99.90
14893;DHT22;7538;53.626;9.906;2023-02-11T00:48:29;7.70;99.90
14893;DHT22;7538;53.626;9.906;2023-02-11T00:50:56;7.70;99.90
14893;DHT22;7538;53.626;9.906;2023-02-11T00:53:22;7.60;99.90
14893;DHT22;7538;53.626;9.906;2023-02-11T00:55:51;7.60;99.90
14893;DHT22;7538;53.626;9.906;2023-02-11T00:58:17;7.50;99.90
14893;DHT22;7538;53.626;9.906;2023-02-11T01:00:45;7.60;99.90
14893;DHT22;7538;53.626;9.906;2023-02-11T01:03:12;7.50;99.90
14893;DHT22;7538;53.626;9.906;2023-02-11T01:05:39;7.60;99.90
14893;DHT22;7538;53.626;9.906;2023-02-11T01:08:06;7.50;99.90
14893;DHT22;7538;53.626;9.906;2023-02-11T01:10:33;7.50;99.90
14893;DHT22;7538;53.626;9.906;2023-02-11T01:13:01;7.50;99.90
14893;DHT22;7538;53.626;9.906;2023-02-11T01:15:28;7.60;99.90
14893;DHT22;7538;53.626;9.906;2023-02-11T01:17:55;7.50;99.90
14893;DHT22;7538;53.626;9.906;2023-02-11T01:20:24;7.40;99.90
14893;DHT22;7538;53.626;9.906;2023-02-11T01:22:51;7.50;99.90
14893;DHT22;7538;53.626;9.906;2023-02-11T01:25:18;7.50;99.90
14893;DHT22;7538;53.626;9.906;2023-02-11T01:27:45;7.50;99.90
14893;DHT22;7538;53.626;9.906;2023-02-11T01:30:13;7.50;99.90
14893;DHT22;7538;53.626;9.906;2023-02-11T01:32:40;7.50;99.90
14893;DHT22;7538;53.626;9.906;2023-02-11T01:35:07;7.50;99.90
14893;DHT22;7538;53.626;9.906;2023-02-11T01:37:34;7.60;99.90
14893;DHT22;7538;53.626;9.906;2023-02-11T01:40:03;7.50;99.90
14893;DHT22;7538;53.626;9.906;2023-02-11T01:42:31;7.50;99.90
14893;DHT22;7538;53.626;9.906;2023-02-11T01:45:00;7.50;99.90
14893;DHT22;7538;53.626;9.906;2023-02-11T01:47:28;7.50;99.90
14893;DHT22;7538;53.626;9.906;2023-02-11T01:49:58;7.40;99.90
14893;DHT22;7538;53.626;9.906;2023-02-11T01:52:29;7.30;99.90
14893;DHT22;7538;53.626;9.906;2023-02-11T01:55:00;7.50;99.90
14893;DHT22;7538;53.626;9.906;2023-02-11T01:57:49;7.50;99.90
14893;DHT22;7538;53.626;9.906;2023-02-11T02:00:20;7.50;99.90
14893;DHT22;7538;53.626;9.906;2023-02-11T02:02:54;7.50;99.90
14893;DHT22;7538;53.626;9.906;2023-02-11T02:05:27;7.50;99.90
14893;DHT22;7538;53.626;9.906;2023-02-11T02:08:02;7.50;99.90
14893;DHT22;7538;53.626;9.906;2023-02-11T02:10:33;7.50;99.90
14893;DHT22;7538;53.626;9.906;2023-02-11T02:13:01;7.60;99.90
14893;DHT22;7538;53.626;9.906;2023-02-11T02:15:29;7.50;99.90
14893;DHT22;7538;53.626;9.906;2023-02-11T02:18:10;7.50;99.90
14893;DHT22;7538;53.626;9.906;2023-02-11T02:23:41;7.50;99.90
14893;DHT22;7538;53.626;9.906;2023-02-11T02:29:58;7.60;99.90
14893;DHT22;7538;53.626;9.906;2023-02-11T02:32:46;7.60;99.90
14893;DHT22;7538;53.626;9.906;2023-02-11T02:35:26;7.50;99.90
14893;DHT22;7538;53.626;9.906;2023-02-11T02:37:58;7.50;99.90
14893;DHT22;7538;53.626;9.906;2023-02-11T02:40:30;7.60;99.90
14893;DHT22;7538;53.626;9.906;2023-02-11T02:42:59;7.60;99.90
14893;DHT22;7538;53.626;9.906;2023-02-11T02:45:26;7.60;99.90
14893;DHT22;7538;53.626;9.906;2023-02-11T02:47:55;7.60;99.90
14893;DHT22;7538;53.626;9.906;2023-02-11T02:50:26;7.60;99.90
14893;DHT22;7538;53.626;9.906;2023-02-11T02:53:12;7.70;99.90
14893;DHT22;7538;53.626;9.906;2023-02-11T02:55:50;7.70;99.90
14893;DHT22;7538;53.626;9.906;2023-02-11T03:01:25;7.70;99.90
14893;DHT22;7538;53.626;9.906;2023-02-11T03:04:01;7.70;99.90
14893;DHT22;7538;53.626;9.906;2023-02-11T03:06:32;7.80;99.90
14893;DHT22;7538;53.626;9.906;2023-02-11T03:09:03;7.80;99.90
14893;DHT22;7538;53.626;9.906;2023-02-11T03:11:32;7.80;99.90
14893;DHT22;7538;53.626;9.906;2023-02-11T03:14:02;7.70;99.90
14893;DHT22;7538;53.626;9.906;2023-02-11T03:16:29;7.60;99.90
14893;DHT22;7538;53.626;9.906;2023-02-11T03:19:05;7.60;99.90
14893;DHT22;7538;53.626;9.906;2023-02-11T03:21:34;7.60;99.90
14893;DHT22;7538;53.626;9.906;2023-02-11T03:24:06;7.60;99.90
14893;DHT22;7538;53.626;9.906;2023-02-11T03:26:37;7.70;99.90
14893;DHT22;7538;53.626;9.906;2023-02-11T03:29:09;7.60;99.90
14893;DHT22;7538;53.626;9.906;2023-02-11T03:31:45;7.60;99.90
14893;DHT22;7538;53.626;9.906;2023-02-11T03:34:21;7.60;99.90
14893;DHT22;7538;53.626;9.906;2023-02-11T03:36:52;7.60;99.90
14893;DHT22;7538;53.626;9.906;2023-02-11T03:39:24;7.60;99.90
14893;DHT22;7538;53.626;9.906;2023-02-11T03:41:54;7.70;99.90
14893;DHT22;7538;53.626;9.906;2023-02-11T03:44:24;7.70;99.90
14893;DHT22;7538;53.626;9.906;2023-02-11T03:46:53;7.70;99.90
14893;DHT22;7538;53.626;9.906;2023-02-11T03:49:23;7.80;99.90
14893;DHT22;7538;53.626;9.906;2023-02-11T03:51:52;7.80;99.90
14893;DHT22;7538;53.626;9.906;2023-02-11T03:54:23;7.80;99.90
14893;DHT22;7538;53.626;9.906;2023-02-11T03:56:54;7.90;99.90
14893;DHT22;7538;53.626;9.906;2023-02-11T03:59:21;7.90;99.90
14893;DHT22;7538;53.626;9.906;2023-02-11T04:01:48;7.90;99.90
14893;DHT22;7538;53.626;9.906;2023-02-11T04:04:15;7.90;99.90
14893;DHT22;7538;53.626;9.906;2023-02-11T04:06:43;7.90;99.90
14893;DHT22;7538;53.626;9.906;2023-02-11T04:09:10;8.00;99.90
14893;DHT22;7538;53.626;9.906;2023-02-11T04:11:37;8.00;99.90
14893;DHT22;7538;53.626;9.906;2023-02-11T04:14:04;8.10;99.90
14893;DHT22;7538;53.626;9.906;2023-02-11T04:16:31;8.10;99.90
14893;DHT22;7538;53.626;9.906;2023-02-11T04:18:58;8.10;99.90
14893;DHT22;7538;53.626;9.906;2023-02-11T04:21:26;8.10;99.90
14893;DHT22;7538;53.626;9.906;2023-02-11T04:23:54;8.10;99.90
14893;DHT22;7538;53.626;9.906;2023-02-11T04:26:21;8.20;99.90
14893;DHT22;7538;53.626;9.906;2023-02-11T04:28:47;8.20;99.90
14893;DHT22;7538;53.626;9.906;2023-02-11T04:31:14;8.20;99.90
14893;DHT22;7538;53.626;9.906;2023-02-11T04:33:41;8.20;99.90
14893;DHT22;7538;53.626;9.906;2023-02-11T04:36:08;8.20;99.90
14893;DHT22;7538;53.626;9.906;2023-02-11T04:38:34;10.20;99.90
14893;DHT22;7538;53.626;9.906;2023-02-11T04:41:03;8.30;99.90
14893;DHT22;7538;53.626;9.906;2023-02-11T04:43:29;8.30;99.90
14893;DHT22;7538;53.626;9.906;2023-02-11T04:45:57;8.40;99.90
14893;DHT22;7538;53.626;9.906;2023-02-11T04:48:24;8.40;99.90
14893;DHT22;7538;53.626;9.906;2023-02-11T04:50:50;6.50;99.90
14893;DHT22;7538;53.626;9.906;2023-02-11T04:53:17;11.10;99.90
14893;DHT22;7538;53.626;9.906;2023-02-11T04:55:46;8.50;99.90
14893;DHT22;7538;53.626;9.906;2023-02-11T04:58:15;8.50;99.90
14893;DHT22;7538;53.626;9.906;2023-02-11T05:00:41;8.50;99.90
14893;DHT22;7538;53.626;9.906;2023-02-11T05:03:08;8.50;99.90
14893;DHT22;7538;53.626;9.906;2023-02-11T05:05:37;8.50;99.90
14893;DHT22;7538;53.626;9.906;2023-02-11T05:08:04;8.50;99.90
14893;DHT22;7538;53.626;9.906;2023-02-11T05:10:30;8.50;99.90
14893;DHT22;7538;53.626;9.906;2023-02-11T05:12:57;8.50;99.90
14893;DHT22;7538;53.626;9.906;2023-02-11T05:15:26;8.50;99.90
14893;DHT22;7538;53.626;9.906;2023-02-11T05:17:53;8.50;99.90
14893;DHT22;7538;53.626;9.906;2023-02-11T05:20:20;8.50;99.90
14893;DHT22;7538;53.626;9.906;2023-02-11T05:22:47;8.50;99.90
14893;DHT22;7538;53.626;9.906;2023-02-11T05:25:14;8.50;99.90
14893;DHT22;7538;53.626;9.906;2023-02-11T05:27:41;8.50;99.90
14893;DHT22;7538;53.626;9.906;2023-02-11T05:30:09;8.50;99.90
14893;DHT22;7538;53.626;9.906;2023-02-11T05:32:37;8.50;99.90
14893;DHT22;7538;53.626;9.906;2023-02-11T05:35:05;8.50;99.90
14893;DHT22;7538;53.626;9.906;2023-02-11T05:37:32;8.40;99.90
14893;DHT22;7538;53.626;9.906;2023-02-11T05:39:59;8.30;99.90
14893;DHT22;7538;53.626;9.906;2023-02-11T05:42:25;8.30;99.90
14893;DHT22;7538;53.626;9.906;2023-02-11T05:44:52;8.40;99.90
14893;DHT22;7538;53.626;9.906;2023-02-11T05:47:19;8.30;99.90
14893;DHT22;7538;53.626;9.906;2023-02-11T05:49:47;8.30;99.90
14893;DHT22;7538;53.626;9.906;2023-02-11T05:52:14;8.40;99.90
14893;DHT22;7538;53.626;9.906;2023-02-11T05:54:41;8.40;99.90
14893;DHT22;7538;53.626;9.906;2023-02-11T05:57:08;8.40;99.90
14893;DHT22;7538;53.626;9.906;2023-02-11T05:59:34;8.50;99.90
14893;DHT22;7538;53.626;9.906;2023-02-11T06:02:01;8.40;99.90
14893;DHT22;7538;53.626;9.906;2023-02-11T06:04:28;8.40;99.90
14893;DHT22;7538;53.626;9.906;2023-02-11T06:06:57;8.50;99.90
14893;DHT22;7538;53.626;9.906;2023-02-11T06:09:23;8.50;99.90
14893;DHT22;7538;53.626;9.906;2023-02-11T06:11:50;8.50;99.90
14893;DHT22;7538;53.626;9.906;2023-02-11T06:14:17;8.50;99.90
14893;DHT22;7538;53.626;9.906;2023-02-11T06:16:44;8.40;99.90
14893;DHT22;7538;53.626;9.906;2023-02-11T06:19:11;8.30;99.90
14893;DHT22;7538;53.626;9.906;2023-02-11T06:21:39;8.40;99.90
14893;DHT22;7538;53.626;9.906;2023-02-11T06:24:07;8.40;99.90
14893;DHT22;7538;53.626;9.906;2023-02-11T06:26:34;8.50;99.90
14893;DHT22;7538;53.626;9.906;2023-02-11T06:29:01;8.50;99.90
14893;DHT22;7538;53.626;9.906;2023-02-11T06:31:28;8.50;99.90
14893;DHT22;7538;53.626;9.906;2023-02-11T06:33:54;8.50;99.90
14893;DHT22;7538;53.626;9.906;2023-02-11T06:36:22;8.50;99.90
14893;DHT22;7538;53.626;9.906;2023-02-11T06:38:51;8.50;99.90
14893;DHT22;7538;53.626;9.906;2023-02-11T06:41:19;8.60;99.90
14893;DHT22;7538;53.626;9.906;2023-02-11T06:43:46;9.30;99.90
14893;DHT22;7538;53.626;9.906;2023-02-11T06:46:13;8.60;99.90
14893;DHT22;7538;53.626;9.906;2023-02-11T06:48:40;8.60;99.90
14893;DHT22;7538;53.626;9.906;2023-02-11T06:51:09;8.60;99.90
14893;DHT22;7538;53.626;9.906;2023-02-11T06:53:37;8.70;99.90
14893;DHT22;7538;53.626;9.906;2023-02-11T06:56:06;8.70;99.90
14893;DHT22;7538;53.626;9.906;2023-02-11T06:58:34;8.70;99.90
14893;DHT22;7538;53.626;9.906;2023-02-11T07:01:03;8.70;99.90
14893;DHT22;7538;53.626;9.906;2023-02-11T07:03:31;8.70;99.90
14893;DHT22;7538;53.626;9.906;2023-02-11T07:05:59;8.50;99.90
14893;DHT22;7538;53.626;9.906;2023-02-11T07:08:26;8.50;99.90
14893;DHT22;7538;53.626;9.906;2023-02-11T07:10:53;8.40;99.90
14893;DHT22;7538;53.626;9.906;2023-02-11T07:13:19;8.30;99.90
14893;DHT22;7538;53.626;9.906;2023-02-11T07:15:48;8.40;99.90
14893;DHT22;7538;53.626;9.906;2023-02-11T07:18:15;8.40;99.90
14893;DHT22;7538;53.626;9.906;2023-02-11T07:20:42;8.40;99.90
14893;DHT22;7538;53.626;9.906;2023-02-11T07:23:10;8.40;99.90
14893;DHT22;7538;53.626;9.906;2023-02-11T07:25:37;8.40;99.90
14893;DHT22;7538;53.626;9.906;2023-02-11T07:28:04;8.40;99.90
14893;DHT22;7538;53.626;9.906;2023-02-11T07:30:31;8.40;99.90
14893;DHT22;7538;53.626;9.906;2023-02-11T07:32:59;8.50;99.90
14893;DHT22;7538;53.626;9.906;2023-02-11T07:35:26;8.40;99.90
14893;DHT22;7538;53.626;9.906;2023-02-11T07:37:53;8.30;99.90
14893;DHT22;7538;53.626;9.906;2023-02-11T07:40:20;8.30;99.90
14893;DHT22;7538;53.626;9.906;2023-02-11T07:42:47;8.30;99.90
14893;DHT22;7538;53.626;9.906;2023-02-11T07:45:13;8.30;99.90
14893;DHT22;7538;53.626;9.906;2023-02-11T07:47:40;8.40;99.90
14893;DHT22;7538;53.626;9.906;2023-02-11T07:50:09;8.30;99.90
14893;DHT22;7538;53.626;9.906;2023-02-11T07:52:36;8.40;99.90
14893;DHT22;7538;53.626;9.906;2023-02-11T07:55:03;8.40;99.90
14893;DHT22;7538;53.626;9.906;2023-02-11T07:57:30;8.40;99.90
14893;DHT22;7538;53.626;9.906;2023-02-11T07:59:57;8.40;99.90
14893;DHT22;7538;53.626;9.906;2023-02-11T08:02:24;8.40;99.90
14893;DHT22;7538;53.626;9.906;2023-02-11T08:04:51;8.40;99.90
14893;DHT22;7538;53.626;9.906;2023-02-11T08:07:19;8.50;99.90
14893;DHT22;7538;53.626;9.906;2023-02-11T08:09:46;8.50;99.90
14893;DHT22;7538;53.626;9.906;2023-02-11T08:12:13;8.40;99.90
14893;DHT22;7538;53.626;9.906;2023-02-11T08:14:40;8.40;99.90
14893;DHT22;7538;53.626;9.906;2023-02-11T08:17:06;8.40;99.90
14893;DHT22;7538;53.626;9.906;2023-02-11T08:19:33;8.40;99.90
14893;DHT22;7538;53.626;9.906;2023-02-11T08:22:00;8.50;99.90
14893;DHT22;7538;53.626;9.906;2023-02-11T08:24:28;8.50;99.90
14893;DHT22;7538;53.626;9.906;2023-02-11T08:26:55;8.50;99.90
14893;DHT22;7538;53.626;9.906;2023-02-11T08:29:22;8.60;99.90
14893;DHT22;7538;53.626;9.906;2023-02-11T08:31:49;8.60;99.90
14893;DHT22;7538;53.626;9.906;2023-02-11T08:34:16;8.60;99.90
14893;DHT22;7538;53.626;9.906;2023-02-11T08:36:44;8.60;99.90
14893;DHT22;7538;53.626;9.906;2023-02-11T08:39:13;8.60;99.90
14893;DHT22;7538;53.626;9.906;2023-02-11T08:41:42;8.70;99.90
14893;DHT22;7538;53.626;9.906;2023-02-11T08:44:10;8.70;99.90
14893;DHT22;7538;53.626;9.906;2023-02-11T08:46:37;8.80;99.90
14893;DHT22;7538;53.626;9.906;2023-02-11T08:49:03;8.80;99.90
14893;DHT22;7538;53.626;9.906;2023-02-11T08:51:30;9.00;99.90
14893;DHT22;7538;53.626;9.906;2023-02-11T08:53:57;9.00;99.90
14893;DHT22;7538;53.626;9.906;2023-02-11T08:56:25;9.00;99.90
14893;DHT22;7538;53.626;9.906;2023-02-11T08:58:53;9.00;99.90
14893;DHT22;7538;53.626;9.906;2023-02-11T09:01:22;9.00;99.90
14893;DHT22;7538;53.626;9.906;2023-02-11T09:03:50;9.10;99.90
14893;DHT22;7538;53.626;9.906;2023-02-11T09:06:17;9.10;99.90
14893;DHT22;7538;53.626;9.906;2023-02-11T09:08:45;9.20;99.90
14893;DHT22;7538;53.626;9.906;2023-02-11T09:11:14;9.20;99.90
14893;DHT22;7538;53.626;9.906;2023-02-11T09:13:42;9.20;99.90
14893;DHT22;7538;53.626;9.906;2023-02-11T09:16:16;9.30;99.90
14893;DHT22;7538;53.626;9.906;2023-02-11T09:18:43;9.30;99.90
14893;DHT22;7538;53.626;9.906;2023-02-11T09:21:10;9.30;99.90
14893;DHT22;7538;53.626;9.906;2023-02-11T09:23:38;9.30;99.90
14893;DHT22;7538;53.626;9.906;2023-02-11T09:26:09;9.30;99.90
14893;DHT22;7538;53.626;9.906;2023-02-11T09:28:38;9.40;99.90
14893;DHT22;7538;53.626;9.906;2023-02-11T09:31:05;9.40;99.90
14893;DHT22;7538;53.626;9.906;2023-02-11T09:33:34;9.40;99.90
14893;DHT22;7538;53.626;9.906;2023-02-11T09:36:02;9.50;99.90
14893;DHT22;7538;53.626;9.906;2023-02-11T09:38:29;9.50;99.90
14893;DHT22;7538;53.626;9.906;2023-02-11T09:40:56;9.50;99.90
14893;DHT22;7538;53.626;9.906;2023-02-11T09:43:27;9.60;99.90
14893;DHT22;7538;53.626;9.906;2023-02-11T09:45:56;9.60;99.90
14893;DHT22;7538;53.626;9.906;2023-02-11T09:48:23;9.70;99.90
14893;DHT22;7538;53.626;9.906;2023-02-11T09:50:54;9.70;99.90
14893;DHT22;7538;53.626;9.906;2023-02-11T09:53:23;9.80;99.90
14893;DHT22;7538;53.626;9.906;2023-02-11T09:55:52;9.80;99.90
14893;DHT22;7538;53.626;9.906;2023-02-11T09:58:25;9.90;99.90
14893;DHT22;7538;53.626;9.906;2023-02-11T10:00:57;9.90;99.90
14893;DHT22;7538;53.626;9.906;2023-02-11T10:03:52;9.90;99.90
14893;DHT22;7538;53.626;9.906;2023-02-11T10:06:38;10.00;99.90
14893;DHT22;7538;53.626;9.906;2023-02-11T10:09:27;10.00;99.90
14893;DHT22;7538;53.626;9.906;2023-02-11T10:12:09;10.00;99.90
14893;DHT22;7538;53.626;9.906;2023-02-11T10:17:52;10.00;99.90
14893;DHT22;7538;53.626;9.906;2023-02-11T10:20:26;10.00;99.90
14893;DHT22;7538;53.626;9.906;2023-02-11T10:22:58;10.10;99.90
14893;DHT22;7538;53.626;9.906;2023-02-11T10:25:27;10.10;99.90
14893;DHT22;7538;53.626;9.906;2023-02-11T10:27:57;10.00;99.90
14893;DHT22;7538;53.626;9.906;2023-02-11T10:30:29;10.10;99.90
14893;DHT22;7538;53.626;9.906;2023-02-11T10:32:59;10.10;99.90
14893;DHT22;7538;53.626;9.906;2023-02-11T10:35:28;10.20;99.90
14893;DHT22;7538;53.626;9.906;2023-02-11T10:37:58;10.10;99.90
14893;DHT22;7538;53.626;9.906;2023-02-11T10:40:27;10.10;99.90
14893;DHT22;7538;53.626;9.906;2023-02-11T10:42:57;10.10;99.90
14893;DHT22;7538;53.626;9.906;2023-02-11T10:45:29;10.10;99.90
14893;DHT22;7538;53.626;9.906;2023-02-11T10:47:58;10.10;99.90
14893;DHT22;7538;53.626;9.906;2023-02-11T10:50:28;10.10;99.90
14893;DHT22;7538;53.626;9.906;2023-02-11T10:53:16;10.20;99.90
14893;DHT22;7538;53.626;9.906;2023-02-11T10:55:52;10.30;99.90
14893;DHT22;7538;53.626;9.906;2023-02-11T10:58:24;10.30;99.90
14893;DHT22;7538;53.626;9.906;2023-02-11T11:00:53;10.30;99.90
14893;DHT22;7538;53.626;9.906;2023-02-11T11:03:22;10.40;99.90
14893;DHT22;7538;53.626;9.906;2023-02-11T11:05:51;10.40;99.90
14893;DHT22;7538;53.626;9.906;2023-02-11T11:08:20;10.40;99.90
14893;DHT22;7538;53.626;9.906;2023-02-11T11:10:48;10.50;99.90
14893;DHT22;7538;53.626;9.906;2023-02-11T11:13:30;10.50;99.90
14893;DHT22;7538;53.626;9.906;2023-02-11T11:19:20;10.40;99.90
14893;DHT22;7538;53.626;9.906;2023-02-11T11:21:49;10.30;99.90
14893;DHT22;7538;53.626;9.906;2023-02-11T11:24:21;10.30;99.90
14893;DHT22;7538;53.626;9.906;2023-02-11T11:26:50;10.30;99.90
14893;DHT22;7538;53.626;9.906;2023-02-11T11:29:21;10.30;99.90
14893;DHT22;7538;53.626;9.906;2023-02-11T11:31:52;10.40;99.90
14893;DHT22;7538;53.626;9.906;2023-02-11T11:34:26;10.40;99.90
14893;DHT22;7538;53.626;9.906;2023-02-11T11:36:54;10.40;99.90
14893;DHT22;7538;53.626;9.906;2023-02-11T11:39:24;10.40;99.90
14893;DHT22;7538;53.626;9.906;2023-02-11T11:41:54;10.50;99.90
14893;DHT22;7538;53.626;9.906;2023-02-11T11:44:27;10.50;99.90
14893;DHT22;7538;53.626;9.906;2023-02-11T11:50:21;10.50;99.90
14893;DHT22;7538;53.626;9.906;2023-02-11T11:52:55;10.50;99.90
14893;DHT22;7538;53.626;9.906;2023-02-11T11:55:27;10.50;99.90
14893;DHT22;7538;53.626;9.906;2023-02-11T11:57:56;10.60;99.90
14893;DHT22;7538;53.626;9.906;2023-02-11T12:00:30;10.60;99.90
14893;DHT22;7538;53.626;9.906;2023-02-11T12:03:23;10.60;99.90
14893;DHT22;7538;53.626;9.906;2023-02-11T12:06:06;10.70;99.90
14893;DHT22;7538;53.626;9.906;2023-02-11T12:08:42;10.60;99.90
14893;DHT22;7538;53.626;9.906;2023-02-11T12:11:16;10.60;99.90
14893;DHT22;7538;53.626;9.906;2023-02-11T12:13:56;10.60;99.90
14893;DHT22;7538;53.626;9.906;2023-02-11T12:16:32;10.60;99.90
14893;DHT22;7538;53.626;9.906;2023-02-11T12:19:22;10.60;99.90
14893;DHT22;7538;53.626;9.906;2023-02-11T12:21:58;10.50;99.90
14893;DHT22;7538;53.626;9.906;2023-02-11T12:24:39;10.50;99.90
14893;DHT22;7538;53.626;9.906;2023-02-11T12:27:15;10.50;99.90
14893;DHT22;7538;53.626;9.906;2023-02-11T12:29:54;10.40;99.90
14893;DHT22;7538;53.626;9.906;2023-02-11T12:32:34;10.50;99.90
14893;DHT22;7538;53.626;9.906;2023-02-11T12:35:21;10.40;99.90
14893;DHT22;7538;53.626;9.906;2023-02-11T12:40:57;10.40;99.90
14893;DHT22;7538;53.626;9.906;2023-02-11T12:43:34;10.40;99.90
14893;DHT22;7538;53.626;9.906;2023-02-11T12:46:16;10.40;99.90
14893;DHT22;7538;53.626;9.906;2023-02-11T12:49:21;10.40;99.90
14893;DHT22;7538;53.626;9.906;2023-02-11T12:52:04;10.40;99.90
14893;DHT22;7538;53.626;9.906;2023-02-11T12:54:37;10.40;99.90
14893;DHT22;7538;53.626;9.906;2023-02-11T12:57:06;10.50;99.90
14893;DHT22;7538;53.626;9.906;2023-02-11T12:59:44;10.40;99.90
14893;DHT22;7538;53.626;9.906;2023-02-11T13:02:26;10.50;99.90
14893;DHT22;7538;53.626;9.906;2023-02-11T13:04:56;10.50;99.90
14893;DHT22;7538;53.626;9.906;2023-02-11T13:07:30;10.50;99.90
14893;DHT22;7538;53.626;9.906;2023-02-11T13:10:02;10.60;99.90
14893;DHT22;7538;53.626;9.906;2023-02-11T13:12:32;10.60;99.90
14893;DHT22;7538;53.626;9.906;2023-02-11T13:15:25;10.60;99.90
14893;DHT22;7538;53.626;9.906;2023-02-11T13:17:57;10.60;99.90
14893;DHT22;7538;53.626;9.906;2023-02-11T13:20:34;10.60;99.90
14893;DHT22;7538;53.626;9.906;2023-02-11T13:23:10;10.60;99.90
14893;DHT22;7538;53.626;9.906;2023-02-11T13:25:43;10.70;99.90
14893;DHT22;7538;53.626;9.906;2023-02-11T13:28:27;10.60;99.90
14893;DHT22;7538;53.626;9.906;2023-02-11T13:30:58;10.60;99.90
14893;DHT22;7538;53.626;9.906;2023-02-11T13:33:33;10.70;99.90
14893;DHT22;7538;53.626;9.906;2023-02-11T13:36:20;10.70;99.90
14893;DHT22;7538;53.626;9.906;2023-02-11T13:38:57;10.70;99.90
14893;DHT22;7538;53.626;9.906;2023-02-11T13:41:30;10.70;99.90
14893;DHT22;7538;53.626;9.906;2023-02-11T13:46:59;10.70;99.90
14893;DHT22;7538;53.626;9.906;2023-02-11T13:49:32;10.70;99.90
14893;DHT22;7538;53.626;9.906;2023-02-11T13:52:03;10.70;99.90
14893;DHT22;7538;53.626;9.906;2023-02-11T13:54:34;10.70;99.90
14893;DHT22;7538;53.626;9.906;2023-02-11T13:57:33;10.70;99.90
14893;DHT22;7538;53.626;9.906;2023-02-11T14:06:19;10.70;99.90
14893;DHT22;7538;53.626;9.906;2023-02-11T14:09:34;10.70;99.90
14893;DHT22;7538;53.626;9.906;2023-02-11T14:12:30;10.60;99.90
14893;DHT22;7538;53.626;9.906;2023-02-11T14:14:59;10.60;99.90
14893;DHT22;7538;53.626;9.906;2023-02-11T14:17:28;10.60;99.90
14893;DHT22;7538;53.626;9.906;2023-02-11T14:19:58;10.60;99.90
14893;DHT22;7538;53.626;9.906;2023-02-11T14:22:27;10.60;99.90
14893;DHT22;7538;53.626;9.906;2023-02-11T14:24:56;10.60;99.90
14893;DHT22;7538;53.626;9.906;2023-02-11T14:27:38;10.50;99.90
14893;DHT22;7538;53.626;9.906;2023-02-11T14:30:12;10.50;99.90
14893;DHT22;7538;53.626;9.906;2023-02-11T14:32:56;10.50;99.90
14893;DHT22;7538;53.626;9.906;2023-02-11T14:35:33;10.50;99.90
14893;DHT22;7538;53.626;9.906;2023-02-11T14:38:06;10.50;99.90
14893;DHT22;7538;53.626;9.906;2023-02-11T14:40:43;10.50;99.90
14893;DHT22;7538;53.626;9.906;2023-02-11T14:43:15;10.50;99.90
14893;DHT22;7538;53.626;9.906;2023-02-11T14:45:44;10.40;99.90
14893;DHT22;7538;53.626;9.906;2023-02-11T14:48:15;10.40;99.90
14893;DHT22;7538;53.626;9.906;2023-02-11T14:50:46;10.40;99.90
14893;DHT22;7538;53.626;9.906;2023-02-11T14:53:15;10.30;99.90
14893;DHT22;7538;53.626;9.906;2023-02-11T14:55:45;10.30;99.90
14893;DHT22;7538;53.626;9.906;2023-02-11T14:58:15;10.30;99.90
14893;DHT22;7538;53.626;9.906;2023-02-11T15:00:52;10.20;99.90
14893;DHT22;7538;53.626;9.906;2023-02-11T15:03:40;10.20;99.90
14893;DHT22;7538;53.626;9.906;2023-02-11T15:06:16;10.10;99.90
14893;DHT22;7538;53.626;9.906;2023-02-11T15:08:46;10.10;99.90
14893;DHT22;7538;53.626;9.906;2023-02-11T15:11:17;10.10;99.90
14893;DHT22;7538;53.626;9.906;2023-02-11T15:13:45;10.00;99.90
14893;DHT22;7538;53.626;9.906;2023-02-11T15:16:15;10.00;99.90
14893;DHT22;7538;53.626;9.906;2023-02-11T15:18:48;10.00;99.90
14893;DHT22;7538;53.626;9.906;2023-02-11T15:21:22;10.00;99.90
14893;DHT22;7538;53.626;9.906;2023-02-11T15:23:58;10.00;99.90
14893;DHT22;7538;53.626;9.906;2023-02-11T15:26:25;10.00;99.90
14893;DHT22;7538;53.626;9.906;2023-02-11T15:28:52;10.00;99.90
14893;DHT22;7538;53.626;9.906;2023-02-11T15:31:22;10.00;99.90
14893;DHT22;7538;53.626;9.906;2023-02-11T15:33:50;10.00;99.90
14893;DHT22;7538;53.626;9.906;2023-02-11T15:36:20;10.10;99.90
14893;DHT22;7538;53.626;9.906;2023-02-11T15:39:15;10.00;99.90
14893;DHT22;7538;53.626;9.906;2023-02-11T15:41:42;10.00;99.90
14893;DHT22;7538;53.626;9.906;2023-02-11T15:44:28;10.00;99.90
14893;DHT22;7538;53.626;9.906;2023-02-11T15:46:55;9.90;99.90
14893;DHT22;7538;53.626;9.906;2023-02-11T15:49:23;9.90;99.90
14893;DHT22;7538;53.626;9.906;2023-02-11T15:51:53;9.90;99.90
14893;DHT22;7538;53.626;9.906;2023-02-11T15:54:22;9.90;99.90
14893;DHT22;7538;53.626;9.906;2023-02-11T15:56:53;9.90;99.90
14893;DHT22;7538;53.626;9.906;2023-02-11T15:59:26;9.80;99.90
14893;DHT22;7538;53.626;9.906;2023-02-11T16:01:56;9.80;99.90
14893;DHT22;7538;53.626;9.906;2023-02-11T16:04:25;9.80;99.90
14893;DHT22;7538;53.626;9.906;2023-02-11T16:06:54;9.70;99.90
14893;DHT22;7538;53.626;9.906;2023-02-11T16:09:25;9.70;99.90
14893;DHT22;7538;53.626;9.906;2023-02-11T16:11:58;9.70;99.90
14893;DHT22;7538;53.626;9.906;2023-02-11T16:14:29;9.70;99.90
14893;DHT22;7538;53.626;9.906;2023-02-11T16:16:58;9.70;99.90
14893;DHT22;7538;53.626;9.906;2023-02-11T16:19:27;9.70;99.90
14893;DHT22;7538;53.626;9.906;2023-02-11T16:21:57;9.70;99.90
14893;DHT22;7538;53.626;9.906;2023-02-11T16:24:26;9.70;99.90
14893;DHT22;7538;53.626;9.906;2023-02-11T16:26:55;9.70;99.90
14893;DHT22;7538;53.626;9.906;2023-02-11T16:29:24;9.60;99.90
14893;DHT22;7538;53.626;9.906;2023-02-11T16:31:53;9.60;99.90
14893;DHT22;7538;53.626;9.906;2023-02-11T16:34:21;9.60;99.90
14893;DHT22;7538;53.626;9.906;2023-02-11T16:36:49;9.60;99.90
14893;DHT22;7538;53.626;9.906;2023-02-11T16:39:19;9.60;99.90
14893;DHT22;7538;53.626;9.906;2023-02-11T16:41:47;9.60;99.90
14893;DHT22;7538;53.626;9.906;2023-02-11T16:44:15;9.60;99.90
14893;DHT22;7538;53.626;9.906;2023-02-11T16:46:42;9.60;99.90
14893;DHT22;7538;53.626;9.906;2023-02-11T16:49:10;9.60;99.90
14893;DHT22;7538;53.626;9.906;2023-02-11T16:51:40;9.60;99.90